Time;durP1;ratioP1;P1;durP2;ratioP2;P2;SDS_P1;SDS_P2;PMS_P1;PMS_P2;Temp;Humidity;BMP_temperature;BMP_pressure;BME280_temperature;BME280_humidity;BME280_pressure;Samples;Min_cycle;Max_cycle;Signal;HPM_P1;HPM_P2
2021/03/29 00:02:17;;;;;;;2.63;1.43;;;19.70;52.80;;;;;;4943991;28;20229;-81
2021/03/29 00:04:43;;;;;;;3.03;1.50;;;19.70;52.80;;;;;;4928094;28;21743;-82
2021/03/29 00:07:10;;;;;;;3.47;1.50;;;19.70;52.80;;;;;;4931156;28;20711;-82
2021/03/29 00:09:38;;;;;;;2.53;1.57;;;19.70;52.90;;;;;;4931145;28;20234;-81
2021/03/29 00:12:08;;;;;;;3.77;1.70;;;19.70;52.80;;;;;;4944920;28;20728;-82
2021/03/29 00:14:36;;;;;;;3.17;1.63;;;19.70;52.80;;;;;;4942212;28;20650;-82
2021/03/29 00:17:02;;;;;;;3.87;1.87;;;19.70;52.80;;;;;;4942787;28;20209;-82
2021/03/29 00:19:31;;;;;;;2.80;1.60;;;19.60;52.80;;;;;;4945316;28;20263;-81
2021/03/29 00:21:58;;;;;;;3.90;1.70;;;19.60;52.70;;;;;;4958561;28;20228;-81
2021/03/29 00:24:24;;;;;;;3.63;1.70;;;19.60;52.70;;;;;;4941760;28;20229;-81
2021/03/29 00:26:52;;;;;;;3.47;1.87;;;19.60;52.80;;;;;;4947010;28;20225;-82
2021/03/29 00:29:19;;;;;;;3.60;1.87;;;19.60;52.80;;;;;;4944825;28;20233;-81
2021/03/29 00:31:47;;;;;;;5.00;1.77;;;19.60;52.80;;;;;;4946575;28;20870;-81
2021/03/29 00:34:14;;;;;;;3.07;1.93;;;19.50;52.70;;;;;;4942547;28;20230;-81
2021/03/29 00:36:41;;;;;;;3.03;1.60;;;19.50;52.70;;;;;;4947085;28;20740;-80
2021/03/29 00:39:09;;;;;;;2.97;1.70;;;19.50;52.70;;;;;;4940943;28;20262;-81
2021/03/29 00:41:36;;;;;;;2.93;1.47;;;19.50;52.80;;;;;;4946637;28;20230;-81
2021/03/29 00:44:04;;;;;;;2.93;1.50;;;19.50;52.70;;;;;;4945511;28;20734;-80
2021/03/29 00:46:31;;;;;;;3.73;1.70;;;19.50;52.80;;;;;;4948554;28;20291;-81
2021/03/29 00:48:58;;;;;;;2.93;1.73;;;19.50;52.70;;;;;;4948122;28;20373;-81
2021/03/29 00:51:30;;;;;;;4.40;1.87;;;19.40;52.70;;;;;;4943315;28;20969;-81
2021/03/29 00:53:59;;;;;;;2.73;1.63;;;19.40;52.70;;;;;;4929051;28;20241;-81
2021/03/29 00:56:26;;;;;;;3.77;1.70;;;19.40;52.70;;;;;;4947411;28;20753;-81
2021/03/29 00:58:53;;;;;;;4.07;2.00;;;19.40;52.60;;;;;;4943992;28;20221;-81
2021/03/29 01:01:23;;;;;;;2.47;1.40;;;19.40;52.70;;;;;;4943069;28;20226;-81
2021/03/29 01:03:56;;;;;;;2.30;1.60;;;19.40;52.70;;;;;;4949149;28;20229;-81
2021/03/29 01:06:26;;;;;;;3.40;1.70;;;19.40;52.70;;;;;;4961718;28;20224;-81
2021/03/29 01:08:57;;;;;;;3.10;1.77;;;19.30;52.60;;;;;;4942951;28;20288;-81
2021/03/29 01:11:29;;;;;;;2.77;1.70;;;19.30;52.60;;;;;;4947695;28;20225;-82
2021/03/29 01:14:01;;;;;;;2.90;1.70;;;19.30;52.60;;;;;;4944108;28;20285;-81
2021/03/29 01:16:37;;;;;;;3.30;1.53;;;19.30;52.60;;;;;;4933547;28;20617;-82
2021/03/29 01:19:10;;;;;;;3.53;1.60;;;19.30;52.70;;;;;;4947230;28;20224;-82
2021/03/29 01:22:04;;;;;;;5.43;1.90;;;19.30;52.70;;;;;;4945321;28;20768;-82
2021/03/29 01:24:36;;;;;;;3.27;1.80;;;19.30;52.60;;;;;;4941283;28;20554;-81
2021/03/29 01:27:03;;;;;;;2.37;1.67;;;19.30;52.60;;;;;;4944298;28;20248;-82
2021/03/29 01:29:36;;;;;;;3.10;1.60;;;19.20;52.70;;;;;;4941233;28;20285;-82
2021/03/29 01:32:05;;;;;;;3.77;1.80;;;19.20;52.60;;;;;;4959181;28;20230;-82
2021/03/29 01:34:35;;;;;;;2.30;1.60;;;19.20;52.60;;;;;;4945075;28;20233;-82
2021/03/29 01:37:03;;;;;;;3.70;1.80;;;19.20;52.60;;;;;;4933730;28;20704;-82
2021/03/29 01:39:31;;;;;;;4.23;1.70;;;19.20;52.60;;;;;;4953641;28;20233;-82
2021/03/29 01:41:58;;;;;;;3.73;1.83;;;19.20;52.60;;;;;;4946487;28;20238;-82
2021/03/29 01:44:28;;;;;;;5.40;2.13;;;19.20;52.60;;;;;;4950615;28;20229;-83
2021/03/29 01:46:55;;;;;;;4.07;1.57;;;19.20;52.60;;;;;;4946800;28;20229;-82
2021/03/29 01:49:23;;;;;;;4.23;2.20;;;19.20;52.60;;;;;;4965171;28;20213;-82
2021/03/29 01:51:51;;;;;;;4.00;1.93;;;19.20;53.20;;;;;;4966796;28;20280;-82
2021/03/29 01:54:17;;;;;;;2.57;1.67;;;19.20;52.50;;;;;;4947613;28;20260;-81
2021/03/29 01:56:44;;;;;;;3.80;1.60;;;19.20;52.50;;;;;;4948410;28;20297;-80
2021/03/29 01:59:10;;;;;;;3.33;1.70;;;19.10;52.50;;;;;;4947076;28;20234;-80
2021/03/29 02:01:36;;;;;;;4.20;1.90;;;19.10;52.50;;;;;;4950417;28;20229;-81
2021/03/29 02:04:04;;;;;;;3.53;1.80;;;19.10;52.50;;;;;;4949686;28;20237;-81
2021/03/29 02:06:32;;;;;;;2.87;1.80;;;19.10;52.60;;;;;;4948941;28;20225;-81
2021/03/29 02:09:00;;;;;;;4.37;1.60;;;19.10;52.40;;;;;;4945496;28;20221;-81
2021/03/29 02:11:29;;;;;;;2.23;1.60;;;19.10;52.40;;;;;;4949717;28;20250;-81
2021/03/29 02:13:58;;;;;;;2.73;1.37;;;19.10;52.40;;;;;;4949246;28;20267;-81
2021/03/29 02:16:28;;;;;;;3.73;1.57;;;19.00;52.40;;;;;;4945518;28;20232;-82
2021/03/29 02:18:58;;;;;;;2.57;1.70;;;19.00;52.30;;;;;;4945987;28;20228;-82
2021/03/29 02:21:34;;;;;;;3.30;1.50;;;19.10;52.40;;;;;;4948135;28;20229;-82
2021/03/29 02:24:02;;;;;;;4.50;1.80;;;19.00;52.40;;;;;;4933297;28;20237;-82
2021/03/29 02:26:34;;;;;;;3.70;1.70;;;19.10;52.40;;;;;;4946276;28;20556;-82
2021/03/29 02:29:01;;;;;;;5.23;1.70;;;19.10;52.40;;;;;;4936898;28;20234;-82
2021/03/29 02:31:28;;;;;;;3.17;1.47;;;19.00;52.30;;;;;;4932981;28;20325;-82
2021/03/29 02:33:59;;;;;;;4.17;1.83;;;19.00;52.30;;;;;;4942932;28;20234;-82
2021/03/29 02:36:29;;;;;;;3.67;1.73;;;19.00;52.40;;;;;;4947287;28;20226;-82
2021/03/29 02:38:57;;;;;;;3.23;1.60;;;19.00;52.30;;;;;;4943464;28;20241;-81
2021/03/29 02:41:29;;;;;;;3.30;1.77;;;19.00;52.30;;;;;;4952364;28;20213;-81
2021/03/29 02:43:58;;;;;;;4.47;1.83;;;19.00;52.30;;;;;;4945141;28;20585;-82
2021/03/29 02:46:28;;;;;;;1.93;1.43;;;18.90;52.20;;;;;;4948941;28;20288;-82
2021/03/29 02:48:56;;;;;;;3.23;1.63;;;19.00;52.20;;;;;;4944520;28;20229;-82
2021/03/29 02:51:23;;;;;;;3.80;1.67;;;19.00;52.20;;;;;;4946850;28;20234;-82
2021/03/29 02:53:55;;;;;;;4.57;1.90;;;18.90;52.20;;;;;;4945539;28;20237;-82
2021/03/29 02:56:25;;;;;;;2.43;1.53;;;19.00;52.30;;;;;;4947148;28;20234;-82
2021/03/29 02:58:59;;;;;;;4.07;2.00;;;18.90;52.20;;;;;;4945925;28;20242;-82
2021/03/29 03:01:30;;;;;;;3.33;1.57;;;19.00;52.20;;;;;;4949711;28;20249;-81
2021/03/29 03:03:56;;;;;;;3.07;1.60;;;18.90;52.20;;;;;;4944743;28;20913;-82
2021/03/29 03:06:25;;;;;;;3.27;1.67;;;18.90;52.20;;;;;;4947823;28;20394;-81
2021/03/29 03:08:52;;;;;;;3.50;1.73;;;18.90;52.20;;;;;;4945603;28;20237;-82
2021/03/29 03:11:20;;;;;;;3.03;1.50;;;18.90;52.20;;;;;;4945210;28;20221;-82
2021/03/29 03:13:48;;;;;;;2.80;1.70;;;18.90;52.20;;;;;;4949525;28;20244;-81
2021/03/29 03:16:15;;;;;;;3.53;1.43;;;18.90;52.80;;;;;;4945867;28;20586;-81
2021/03/29 03:18:45;;;;;;;2.97;1.23;;;18.90;52.20;;;;;;4961897;28;20229;-82
2021/03/29 03:21:15;;;;;;;3.77;1.60;;;18.90;52.90;;;;;;4947415;28;20233;-81
2021/03/29 03:23:57;;;;;;;2.90;1.37;;;18.90;52.20;;;;;;4949585;28;20725;-81
2021/03/29 03:26:25;;;;;;;3.47;1.80;;;18.90;52.20;;;;;;4935897;28;20775;-81
2021/03/29 03:28:52;;;;;;;3.07;1.57;;;18.90;52.20;;;;;;4946237;28;20233;-81
2021/03/29 03:31:19;;;;;;;3.33;1.47;;;18.80;52.20;;;;;;4950933;28;20744;-81
2021/03/29 03:33:46;;;;;;;3.23;1.50;;;18.80;52.20;;;;;;4944099;28;20510;-81
2021/03/29 03:36:15;;;;;;;3.43;1.50;;;18.80;52.20;;;;;;4920410;28;20302;-81
2021/03/29 03:38:43;;;;;;;2.47;1.63;;;18.80;52.10;;;;;;4943426;28;20249;-81
2021/03/29 03:41:30;;;;;;;3.37;1.50;;;18.80;52.20;;;;;;4946709;28;20218;-81
2021/03/29 03:43:59;;;;;;;2.73;1.60;;;18.80;52.10;;;;;;4942999;28;21951;-81
2021/03/29 03:46:27;;;;;;;2.23;1.50;;;18.80;52.70;;;;;;4944873;28;20229;-81
2021/03/29 03:48:57;;;;;;;2.40;1.40;;;18.80;52.10;;;;;;4963231;28;20598;-81
2021/03/29 03:51:29;;;;;;;2.83;1.60;;;18.80;52.10;;;;;;4943034;28;20229;-81
2021/03/29 03:53:56;;;;;;;2.87;1.60;;;18.80;52.10;;;;;;4932422;28;20241;-82
2021/03/29 03:56:23;;;;;;;3.30;2.00;;;18.80;52.10;;;;;;4942382;28;20229;-81
2021/03/29 03:58:52;;;;;;;4.23;1.50;;;18.80;52.10;;;;;;4944789;28;20225;-80
2021/03/29 04:01:19;;;;;;;4.00;1.40;;;18.80;52.10;;;;;;4945305;28;20241;-79
2021/03/29 04:03:46;;;;;;;2.93;1.50;;;18.80;52.10;;;;;;4942520;28;20234;-80
2021/03/29 04:06:12;;;;;;;4.50;1.90;;;18.80;52.10;;;;;;4946444;28;20272;-81
2021/03/29 04:08:43;;;;;;;2.23;1.37;;;18.70;52.10;;;;;;4946754;28;20233;-81
2021/03/29 04:11:09;;;;;;;1.87;1.27;;;18.70;52.10;;;;;;4946524;28;20222;-81
2021/03/29 04:13:40;;;;;;;2.37;1.20;;;18.70;52.00;;;;;;4943593;28;20245;-83
2021/03/29 04:16:08;;;;;;;1.80;1.23;;;18.70;52.00;;;;;;4944125;28;20324;-81
2021/03/29 04:18:35;;;;;;;3.93;1.40;;;18.70;52.00;;;;;;4949675;28;20233;-81
2021/03/29 04:21:03;;;;;;;2.80;1.63;;;18.70;52.00;;;;;;4931023;28;20888;-81
2021/03/29 04:23:30;;;;;;;2.17;1.60;;;18.70;52.00;;;;;;4941362;28;20247;-81
2021/03/29 04:25:56;;;;;;;3.23;1.53;;;18.70;52.00;;;;;;4945169;28;20269;-81
2021/03/29 04:28:23;;;;;;;3.17;1.50;;;18.70;52.00;;;;;;4942550;28;20703;-81
2021/03/29 04:30:50;;;;;;;2.00;1.30;;;18.70;52.10;;;;;;4948306;28;20253;-81
2021/03/29 04:33:19;;;;;;;3.27;1.57;;;18.70;52.10;;;;;;4950743;28;20228;-81
2021/03/29 04:35:46;;;;;;;2.73;1.40;;;18.70;52.00;;;;;;4961785;28;20303;-80
2021/03/29 04:38:12;;;;;;;3.13;1.67;;;18.70;52.00;;;;;;4947141;28;20226;-81
2021/03/29 04:40:39;;;;;;;3.20;1.63;;;18.70;52.10;;;;;;4921931;28;20226;-81
2021/03/29 04:43:05;;;;;;;2.63;1.33;;;18.70;52.00;;;;;;4946176;28;20769;-81
2021/03/29 04:45:31;;;;;;;3.97;1.60;;;18.70;52.00;;;;;;4943332;28;20233;-81
2021/03/29 04:47:58;;;;;;;2.80;1.60;;;18.70;52.00;;;;;;4947440;28;20232;-80
2021/03/29 04:50:25;;;;;;;2.23;1.10;;;18.60;52.00;;;;;;4948305;28;20234;-80
2021/03/29 04:52:52;;;;;;;2.57;1.53;;;18.70;52.10;;;;;;4944950;28;20238;-80
2021/03/29 04:55:19;;;;;;;2.20;1.30;;;18.60;52.00;;;;;;4945634;28;20218;-80
2021/03/29 04:57:45;;;;;;;3.03;1.40;;;18.60;52.00;;;;;;4942556;28;20226;-80
2021/03/29 05:00:13;;;;;;;2.63;1.60;;;18.60;52.00;;;;;;4964343;28;20225;-79
2021/03/29 05:02:39;;;;;;;2.90;1.67;;;18.60;51.90;;;;;;4941669;28;20246;-79
2021/03/29 05:05:07;;;;;;;2.33;1.47;;;18.70;52.00;;;;;;4946428;28;20229;-80
2021/03/29 05:07:33;;;;;;;1.67;1.20;;;18.60;51.90;;;;;;4945156;28;20974;-79
2021/03/29 05:10:09;;;;;;;2.43;1.50;;;18.60;51.90;;;;;;4938355;28;20241;-83
2021/03/29 05:12:36;;;;;;;2.73;1.80;;;18.60;51.90;;;;;;4942192;28;20698;-81
2021/03/29 05:15:04;;;;;;;2.63;1.23;;;18.60;51.90;;;;;;4946766;28;20225;-80
2021/03/29 05:17:30;;;;;;;3.27;1.40;;;18.60;51.90;;;;;;4946625;28;20237;-79
2021/03/29 05:19:56;;;;;;;2.03;1.37;;;18.60;51.90;;;;;;4946718;28;20232;-79
2021/03/29 05:22:23;;;;;;;1.50;1.17;;;18.60;52.00;;;;;;4949469;28;20233;-79
2021/03/29 05:24:49;;;;;;;2.80;1.70;;;18.60;51.90;;;;;;4949519;28;20217;-85
2021/03/29 05:27:15;;;;;;;12.03;3.80;;;18.60;52.00;;;;;;4947808;28;20248;-79
2021/03/29 05:29:42;;;;;;;34.33;6.23;;;18.60;52.20;;;;;;4942551;28;20358;-81
2021/03/29 05:32:23;;;;;;;20.67;6.07;;;18.60;52.50;;;;;;4934293;28;20230;-81
2021/03/29 05:34:53;;;;;;;22.13;5.67;;;18.60;52.80;;;;;;4963803;28;20240;-80
2021/03/29 05:37:20;;;;;;;27.70;5.87;;;18.60;52.50;;;;;;4941064;28;20226;-84
2021/03/29 05:39:48;;;;;;;17.87;5.47;;;18.60;53.30;;;;;;4953282;28;20255;-85
2021/03/29 05:42:17;;;;;;;15.13;4.53;;;18.60;52.30;;;;;;4947797;28;20222;-83
2021/03/29 05:44:44;;;;;;;17.27;5.60;;;18.60;52.30;;;;;;4948340;28;20292;-83
2021/03/29 05:47:10;;;;;;;12.47;4.50;;;18.60;52.20;;;;;;4949910;28;20237;-83
2021/03/29 05:49:37;;;;;;;13.10;4.27;;;18.60;52.10;;;;;;4949710;28;20229;-83
2021/03/29 05:52:04;;;;;;;16.43;5.27;;;18.60;52.00;;;;;;4946755;28;20234;-83
2021/03/29 05:54:31;;;;;;;15.37;4.30;;;18.60;52.00;;;;;;4951488;28;20263;-82
2021/03/29 05:56:57;;;;;;;14.23;4.73;;;18.60;52.00;;;;;;4954362;28;20229;-82
2021/03/29 06:01:55;;;;;;;11.43;3.93;;;18.60;51.90;;;;;;4944075;28;20233;-81
2021/03/29 06:04:48;;;;;;;15.10;3.80;;;18.60;51.80;;;;;;4964070;28;20240;-81
2021/03/29 06:07:19;;;;;;;6.37;3.30;;;18.60;51.80;;;;;;4946541;28;20236;-82
2021/03/29 06:09:48;;;;;;;8.53;3.10;;;18.60;51.60;;;;;;4937215;28;20226;-87
2021/03/29 06:12:16;;;;;;;8.80;2.80;;;18.60;51.60;;;;;;4927806;28;20241;-81
2021/03/29 06:14:44;;;;;;;6.43;2.73;;;18.60;51.60;;;;;;4939572;28;20231;-82
2021/03/29 06:17:19;;;;;;;8.87;2.83;;;18.60;51.40;;;;;;4948054;28;20820;-83
2021/03/29 06:19:52;;;;;;;5.67;2.57;;;18.60;51.30;;;;;;4948595;28;20737;-84
2021/03/29 06:22:29;;;;;;;8.17;3.20;;;18.50;51.20;;;;;;4951156;28;20228;-83
2021/03/29 06:25:11;;;;;;;8.17;3.03;;;18.60;51.20;;;;;;4943803;28;20233;-83
2021/03/29 06:27:40;;;;;;;6.87;2.97;;;18.60;51.10;;;;;;4947356;28;20651;-81
2021/03/29 06:30:15;;;;;;;7.23;2.90;;;18.50;51.10;;;;;;4951908;28;21567;-82
2021/03/29 06:33:00;;;;;;;6.67;2.60;;;18.60;51.20;;;;;;4950095;28;20596;-82
2021/03/29 06:35:51;;;;;;;5.20;2.67;;;18.60;51.20;;;;;;4937471;28;20252;-81
2021/03/29 06:38:18;;;;;;;5.27;2.47;;;18.60;51.30;;;;;;4950635;28;20242;-81
2021/03/29 06:40:52;;;;;;;7.97;2.40;;;18.60;51.30;;;;;;4951363;28;20241;-83
2021/03/29 06:43:23;;;;;;;5.43;2.20;;;18.60;51.30;;;;;;4950075;28;20810;-83
2021/03/29 06:45:52;;;;;;;5.40;2.50;;;18.60;51.40;;;;;;4943141;28;20275;-81
2021/03/29 06:48:21;;;;;;;4.93;2.23;;;18.60;51.40;;;;;;4931269;28;20233;-84
2021/03/29 06:51:07;;;;;;;5.40;2.03;;;18.60;51.40;;;;;;4940501;28;20222;-85
2021/03/29 06:53:35;;;;;;;5.27;2.23;;;18.60;51.40;;;;;;4934103;28;20923;-83
2021/03/29 06:56:21;;;;;;;4.13;2.07;;;18.60;51.40;;;;;;4938797;28;20962;-81
2021/03/29 06:58:50;;;;;;;4.73;2.17;;;18.60;51.60;;;;;;4942300;28;20233;-79
2021/03/29 07:01:22;;;;;;;5.03;2.20;;;18.60;52.00;;;;;;4945327;28;20240;-81
2021/03/29 07:03:51;;;;;;;4.60;2.27;;;18.70;51.90;;;;;;4930106;28;20654;-84
2021/03/29 07:06:21;;;;;;;5.80;2.20;;;18.70;51.60;;;;;;4929875;28;20225;-85
2021/03/29 07:08:47;;;;;;;4.43;2.13;;;18.80;51.50;;;;;;4928809;28;20214;-81
2021/03/29 07:11:21;;;;;;;5.97;2.40;;;18.80;51.20;;;;;;4936185;28;20245;-81
2021/03/29 07:13:50;;;;;;;5.57;2.37;;;18.80;51.20;;;;;;4946198;28;20582;-81
2021/03/29 07:16:19;;;;;;;5.23;2.07;;;18.80;51.20;;;;;;4931658;28;21829;-80
2021/03/29 07:18:46;;;;;;;4.63;2.13;;;18.80;51.30;;;;;;4940025;28;20760;-80
2021/03/29 07:21:14;;;;;;;8.83;2.37;;;18.80;51.40;;;;;;4937683;28;20513;-80
2021/03/29 07:23:41;;;;;;;7.57;2.20;;;18.80;51.40;;;;;;4930448;28;20266;-79
2021/03/29 07:26:32;;;;;;;4.87;1.90;;;18.80;51.40;;;;;;4938315;28;20747;-80
2021/03/29 07:29:18;;;;;;;8.43;2.33;;;18.90;51.40;;;;;;4929556;28;21707;-80
2021/03/29 07:31:50;;;;;;;10.03;2.63;;;18.90;51.40;;;;;;4933154;28;20737;-87
2021/03/29 07:34:18;;;;;;;6.40;2.30;;;19.00;51.40;;;;;;4942825;28;20230;-86
2021/03/29 07:36:48;;;;;;;9.50;2.33;;;19.00;52.10;;;;;;4944719;28;20750;-81
2021/03/29 07:39:21;;;;;;;8.43;2.17;;;19.10;52.10;;;;;;4927150;28;20234;-80
2021/03/29 07:42:07;;;;;;;5.07;2.10;;;19.20;51.70;;;;;;4928894;28;20647;-81
2021/03/29 07:45:13;;;;;;;8.23;2.40;;;19.10;51.50;;;;;;4943373;28;20221;-80
2021/03/29 07:47:51;;;;;;;8.03;2.20;;;19.10;51.30;;;;;;4907101;28;20633;-81
2021/03/29 07:50:38;;;;;;;8.50;2.60;;;19.20;51.40;;;;;;4937663;28;20236;-84
2021/03/29 07:53:08;;;;;;;6.03;1.97;;;19.30;52.10;;;;;;4943731;28;20218;-85
2021/03/29 07:55:38;;;;;;;4.47;2.47;;;19.30;51.10;;;;;;4949056;28;20222;-85
2021/03/29 07:58:10;;;;;;;5.57;2.20;;;19.40;51.00;;;;;;4947952;28;20789;-84
2021/03/29 08:00:38;;;;;;;5.77;2.37;;;19.40;50.80;;;;;;4946475;28;20238;-82
2021/03/29 08:03:13;;;;;;;5.27;2.17;;;19.40;50.30;;;;;;4943476;28;20225;-83
2021/03/29 08:05:41;;;;;;;5.47;2.40;;;19.50;50.00;;;;;;4941768;28;20217;-85
2021/03/29 08:08:26;;;;;;;7.23;2.23;;;19.50;50.10;;;;;;4948317;28;20221;-85
2021/03/29 08:10:56;;;;;;;4.20;1.80;;;19.60;50.20;;;;;;4937539;28;20634;-83
2021/03/29 08:13:48;;;;;;;6.83;2.60;;;19.60;49.90;;;;;;4943201;28;20706;-87
2021/03/29 08:16:17;;;;;;;8.13;2.43;;;19.60;50.10;;;;;;4936010;28;20236;-82
2021/03/29 08:19:14;;;;;;;5.53;2.20;;;19.70;48.90;;;;;;4936643;28;20610;-84
2021/03/29 08:21:47;;;;;;;7.10;2.37;;;19.70;49.30;;;;;;4937304;28;21692;-84
2021/03/29 08:24:17;;;;;;;4.77;2.17;;;19.70;48.50;;;;;;4946252;28;20243;-84
2021/03/29 08:26:43;;;;;;;7.87;2.87;;;19.80;48.50;;;;;;4950633;28;20252;-83
2021/03/29 08:29:16;;;;;;;5.23;2.47;;;19.80;48.70;;;;;;4939833;28;20608;-85
2021/03/29 08:32:03;;;;;;;6.73;2.00;;;19.80;47.90;;;;;;4945781;28;20226;-81
2021/03/29 08:34:31;;;;;;;3.97;2.20;;;19.90;48.80;;;;;;4940537;28;20233;-83
2021/03/29 08:37:03;;;;;;;5.53;2.37;;;20.00;48.60;;;;;;4942465;28;20239;-84
2021/03/29 08:39:34;;;;;;;4.00;2.40;;;20.00;48.60;;;;;;4943186;28;20233;-84
2021/03/29 08:42:01;;;;;;;4.50;2.17;;;19.90;48.70;;;;;;4955684;28;20240;-85
2021/03/29 08:44:28;;;;;;;3.13;1.80;;;20.10;48.40;;;;;;4930096;28;20423;-83
2021/03/29 08:46:55;;;;;;;4.87;2.50;;;20.10;48.30;;;;;;4947313;28;20256;-83
2021/03/29 08:49:23;;;;;;;6.87;2.50;;;20.00;48.20;;;;;;4946520;28;20651;-82
2021/03/29 08:51:51;;;;;;;5.70;2.53;;;20.10;47.40;;;;;;4942770;28;20575;-84
2021/03/29 08:54:18;;;;;;;6.97;2.60;;;20.20;47.90;;;;;;4936450;28;20200;-82
2021/03/29 08:56:54;;;;;;;5.20;2.20;;;20.20;47.80;;;;;;4941819;28;20229;-79
2021/03/29 08:59:27;;;;;;;5.07;2.10;;;20.20;47.80;;;;;;4947684;28;21821;-85
2021/03/29 09:02:12;;;;;;;9.93;2.70;;;20.30;46.70;;;;;;4938936;28;20255;-82
2021/03/29 09:04:53;;;;;;;4.80;2.00;;;20.30;46.50;;;;;;4944862;28;20205;-82
2021/03/29 09:07:20;;;;;;;7.20;2.73;;;20.30;47.70;;;;;;4946155;28;20272;-81
2021/03/29 09:09:47;;;;;;;7.07;2.57;;;20.30;47.10;;;;;;4942230;28;20229;-81
2021/03/29 09:12:22;;;;;;;5.47;2.40;;;20.30;47.80;;;;;;4943031;28;20261;-82
2021/03/29 09:14:48;;;;;;;4.03;2.20;;;20.40;47.80;;;;;;4942345;28;20731;-81
2021/03/29 09:17:22;;;;;;;4.67;2.53;;;20.40;48.00;;;;;;4944872;28;20233;-83
2021/03/29 09:19:49;;;;;;;4.67;2.20;;;20.50;47.50;;;;;;4937082;28;20233;-82
2021/03/29 09:22:27;;;;;;;5.20;2.30;;;20.50;47.70;;;;;;4939330;28;20610;-85
2021/03/29 09:24:53;;;;;;;5.60;2.10;;;20.50;47.60;;;;;;4940146;28;20710;-83
2021/03/29 09:27:25;;;;;;;4.03;2.20;;;20.50;47.20;;;;;;4941635;28;20225;-83
2021/03/29 09:29:52;;;;;;;5.57;2.53;;;20.50;47.60;;;;;;4938285;28;20728;-83
2021/03/29 09:32:20;;;;;;;4.27;2.40;;;20.60;47.50;;;;;;4940331;28;20241;-83
2021/03/29 09:34:48;;;;;;;4.63;2.10;;;20.70;47.20;;;;;;4929500;28;21637;-84
2021/03/29 09:37:21;;;;;;;5.47;2.17;;;20.70;47.30;;;;;;4939689;28;20622;-85
2021/03/29 09:40:00;;;;;;;7.13;2.67;;;20.70;46.80;;;;;;4937698;28;20221;-85
2021/03/29 09:42:47;;;;;;;4.93;2.63;;;20.70;44.50;;;;;;4930365;28;20241;-84
2021/03/29 09:45:27;;;;;;;4.90;2.23;;;20.70;45.40;;;;;;4961281;28;20249;-82
2021/03/29 09:48:01;;;;;;;7.10;2.23;;;20.70;43.20;;;;;;4940211;28;20233;-84
2021/03/29 09:50:39;;;;;;;4.50;2.00;;;20.80;45.00;;;;;;4929804;28;20310;-83
2021/03/29 09:53:10;;;;;;;4.77;1.93;;;20.70;46.30;;;;;;4925875;28;20385;-83
2021/03/29 09:55:51;;;;;;;3.90;1.70;;;20.70;47.10;;;;;;4942543;28;20226;-82
2021/03/29 09:58:29;;;;;;;4.03;1.80;;;20.70;47.50;;;;;;4946836;28;20238;-82
2021/03/29 10:00:58;;;;;;;5.50;2.27;;;20.70;47.80;;;;;;4946621;28;20233;-82
2021/03/29 10:03:57;;;;;;;6.03;2.00;;;20.60;47.90;;;;;;4935910;28;20724;-84
2021/03/29 10:06:26;;;;;;;3.33;1.90;;;20.60;48.10;;;;;;4949054;28;20240;-87
2021/03/29 10:09:03;;;;;;;4.50;2.13;;;20.60;48.30;;;;;;4949313;28;20241;-85
2021/03/29 10:11:49;;;;;;;7.80;2.40;;;20.70;48.20;;;;;;4939582;28;20235;-86
2021/03/29 10:14:16;;;;;;;4.50;1.97;;;20.70;51.90;;;;;;4941379;28;21854;-86
2021/03/29 10:16:45;;;;;;;7.47;2.47;;;20.70;49.60;;;;;;4949916;28;20309;-87
2021/03/29 10:19:18;;;;;;;4.07;2.00;;;20.70;49.80;;;;;;4962427;28;20237;-85
2021/03/29 10:22:05;;;;;;;4.83;2.00;;;20.80;49.60;;;;;;4964037;28;20237;-84
2021/03/29 10:24:33;;;;;;;4.67;1.90;;;20.70;49.60;;;;;;4948939;28;20821;-85
2021/03/29 10:27:04;;;;;;;4.90;1.87;;;20.70;49.60;;;;;;4940417;28;20257;-85
2021/03/29 10:29:39;;;;;;;4.47;2.00;;;20.80;49.70;;;;;;4940467;28;20233;-85
2021/03/29 10:32:11;;;;;;;4.10;2.00;;;20.80;49.70;;;;;;4949076;28;20240;-84
2021/03/29 10:34:39;;;;;;;3.90;1.80;;;20.70;49.70;;;;;;4935673;28;20234;-85
2021/03/29 10:37:23;;;;;;;2.60;1.70;;;20.80;49.90;;;;;;4959650;28;20222;-85
2021/03/29 10:39:51;;;;;;;4.47;1.80;;;20.80;50.00;;;;;;4937132;28;20244;-86
2021/03/29 10:42:22;;;;;;;4.07;1.67;;;20.80;52.00;;;;;;4947944;28;20221;-88
2021/03/29 10:44:48;;;;;;;3.67;1.47;;;21.00;51.20;;;;;;4952455;28;20222;-90
2021/03/29 10:47:15;;;;;;;2.87;1.67;;;21.10;51.60;;;;;;4963191;28;20233;-89
2021/03/29 10:49:45;;;;;;;7.40;1.77;;;21.20;51.50;;;;;;4950563;28;20245;-88
2021/03/29 10:52:11;;;;;;;3.53;1.97;;;21.30;51.50;;;;;;4948439;28;20573;-92
2021/03/29 10:54:38;;;;;;;3.97;1.80;;;21.40;51.20;;;;;;4962457;28;20277;-87
2021/03/29 10:57:06;;;;;;;2.83;1.40;;;21.50;50.90;;;;;;4952568;28;20217;-85
2021/03/29 10:59:32;;;;;;;4.17;1.73;;;21.50;50.90;;;;;;4949679;28;20229;-91
2021/03/29 11:02:00;;;;;;;3.23;1.97;;;21.60;50.80;;;;;;4952300;28;20238;-92
2021/03/29 11:04:27;;;;;;;2.60;1.33;;;21.70;50.80;;;;;;4948728;28;20241;-89
2021/03/29 11:06:53;;;;;;;4.97;1.73;;;21.70;50.70;;;;;;4965241;28;20260;-88
2021/03/29 11:09:21;;;;;;;3.63;1.70;;;21.70;50.90;;;;;;4957048;28;20221;-93
2021/03/29 11:11:48;;;;;;;2.37;1.57;;;21.80;50.80;;;;;;4948321;28;20226;-87
2021/03/29 11:14:14;;;;;;;3.97;1.30;;;21.80;50.60;;;;;;4938791;28;20237;-88
2021/03/29 11:16:41;;;;;;;2.73;1.40;;;21.90;50.80;;;;;;4948430;28;20236;-86
2021/03/29 11:19:07;;;;;;;5.57;1.73;;;21.90;50.40;;;;;;4938307;28;20275;-85
2021/03/29 11:21:34;;;;;;;3.60;1.23;;;22.00;50.30;;;;;;4959609;28;20237;-85
2021/03/29 11:24:00;;;;;;;4.03;1.33;;;22.00;50.20;;;;;;4942807;28;20281;-85
2021/03/29 11:26:30;;;;;;;5.13;1.53;;;22.00;50.30;;;;;;4945640;28;20234;-86
2021/03/29 11:28:56;;;;;;;2.23;1.30;;;22.10;50.10;;;;;;4968600;28;20682;-86
2021/03/29 11:31:24;;;;;;;3.50;1.40;;;22.00;49.80;;;;;;4952552;29;20209;-80
2021/03/29 11:33:51;;;;;;;2.93;1.30;;;22.10;49.80;;;;;;4943911;28;20689;-84
2021/03/29 11:36:18;;;;;;;3.97;1.60;;;22.10;50.00;;;;;;4946510;29;20272;-86
2021/03/29 11:38:45;;;;;;;2.53;1.43;;;22.20;50.20;;;;;;4944875;28;20662;-79
2021/03/29 11:41:12;;;;;;;8.03;1.30;;;22.10;48.90;;;;;;4943497;28;20598;-80
2021/03/29 11:43:39;;;;;;;2.87;1.40;;;21.90;49.80;;;;;;4945200;28;20206;-84
2021/03/29 11:46:05;;;;;;;4.00;1.50;;;21.90;50.00;;;;;;4946958;28;20217;-81
2021/03/29 11:48:34;;;;;;;5.73;1.57;;;21.80;50.10;;;;;;4960565;28;20221;-81
2021/03/29 11:51:03;;;;;;;3.83;1.53;;;21.70;50.20;;;;;;4946174;29;20206;-82
2021/03/29 11:53:30;;;;;;;3.37;1.60;;;21.70;50.40;;;;;;4958965;28;20288;-80
2021/03/29 11:55:58;;;;;;;3.37;1.40;;;21.70;50.60;;;;;;4938740;29;20208;-83
2021/03/29 11:58:25;;;;;;;9.93;3.90;;;21.70;50.90;;;;;;4941980;28;20264;-80
2021/03/29 12:00:58;;;;;;;6.70;2.33;;;21.60;53.10;;;;;;4944236;28;20208;-82
2021/03/29 12:03:44;;;;;;;5.97;2.20;;;21.60;53.00;;;;;;4959420;28;20206;-84
2021/03/29 12:06:25;;;;;;;4.23;1.67;;;21.70;53.30;;;;;;4944449;29;20704;-81
2021/03/29 12:09:17;;;;;;;2.17;1.47;;;21.70;53.80;;;;;;4942979;29;20205;-80
2021/03/29 12:11:59;;;;;;;5.33;1.27;;;21.80;53.80;;;;;;4943737;28;20238;-80
2021/03/29 12:14:31;;;;;;;2.27;1.17;;;21.80;53.60;;;;;;4944004;28;20225;-80
2021/03/29 12:16:58;;;;;;;3.70;1.30;;;21.80;53.10;;;;;;4945170;29;20197;-81
2021/03/29 12:19:25;;;;;;;4.73;1.20;;;21.70;52.90;;;;;;4942477;28;20209;-81
2021/03/29 12:21:57;;;;;;;4.37;2.07;;;21.70;52.80;;;;;;4940264;28;20206;-81
2021/03/29 12:24:30;;;;;;;2.80;1.37;;;21.60;52.80;;;;;;4944761;28;20233;-81
2021/03/29 12:27:03;;;;;;;1.67;1.13;;;21.60;52.60;;;;;;4960146;28;20225;-81
2021/03/29 12:29:39;;;;;;;1.70;1.10;;;21.60;52.90;;;;;;4943325;29;20658;-82
2021/03/29 12:32:20;;;;;;;2.13;1.17;;;21.60;52.70;;;;;;4959046;28;20190;-81
2021/03/29 12:34:51;;;;;;;2.53;1.30;;;21.60;52.70;;;;;;4943255;29;20237;-81
2021/03/29 12:37:19;;;;;;;2.43;1.33;;;21.60;52.80;;;;;;4942532;28;20218;-81
2021/03/29 12:39:57;;;;;;;2.70;1.23;;;21.60;52.60;;;;;;4941512;29;20860;-80
2021/03/29 12:42:25;;;;;;;2.33;1.00;;;21.60;52.90;;;;;;4940397;28;20662;-79
2021/03/29 12:44:54;;;;;;;3.87;1.00;;;21.60;52.70;;;;;;4938911;29;20209;-80
2021/03/29 12:47:30;;;;;;;3.00;1.43;;;21.60;52.80;;;;;;4956679;28;20750;-79
2021/03/29 12:50:13;;;;;;;1.77;1.10;;;21.60;52.40;;;;;;4940501;28;20197;-79
2021/03/29 12:52:44;;;;;;;2.33;1.10;;;21.70;52.60;;;;;;4940275;29;20201;-78
2021/03/29 12:55:13;;;;;;;1.77;1.10;;;21.70;52.60;;;;;;4942149;28;20222;-79
2021/03/29 12:57:40;;;;;;;1.20;0.70;;;21.70;52.70;;;;;;4945253;29;20677;-81
2021/03/29 13:00:10;;;;;;;2.73;1.20;;;21.70;52.70;;;;;;4943139;28;20198;-80
2021/03/29 13:02:36;;;;;;;3.80;1.20;;;21.70;52.30;;;;;;4943357;28;20797;-79
2021/03/29 13:05:08;;;;;;;2.57;1.03;;;21.70;52.40;;;;;;4943379;28;20213;-80
2021/03/29 13:07:41;;;;;;;2.03;1.20;;;21.70;52.30;;;;;;4941350;28;20229;-86